Airbus 321-231 from Lufthansa at Porto.
 Regi:D-AISJ  LARGER
 MSN Year:3360 2008
 Date of picture:2016-10-08 13:49
 Discription:Named Guetersloh.
 Logs:
 NotamLPPR A4240/16 International 10/06/2016 0700 10/21/2016 1700 CRANE ERECTED WI 40M RADIUS CENTERED AT 411429.6N 0084021.2W WITH 116M MAX ELEVATION/45M HEIGHT. DAY SIGNALIZED.
 MetarSA 08/10/2016 13:30-> METAR LPPR 081330Z 31009KT 290V350 CAVOK 18/14 Q1019=
 Hits: 10 ID: 2732

Debriefing: Photographed movements of Airports in NW-Europe.
The images of our site attendant is in authorisation from Queen of Sky.
Copying of images of this site have been prohibited in which manner without the authorisation of the photographer.
In behalf of the crew :"Thank you visiting us" - Contact
Factsheets Airbus, 321-231, Lufthansa, made by De Plane! © 2006 - 2022 All rights reserved


.